sensor_id;sensor_type;location;lat;lon;timestamp;pressure;altitude;pressure_sealevel;temperature;humidity
32109;BME280;18624;50.042;8.436;2023-05-25T00:00:55;101144.84;;;11.70;81.82
32109;BME280;18624;50.042;8.436;2023-05-25T00:03:29;101145.72;;;11.66;82.22
32109;BME280;18624;50.042;8.436;2023-05-25T00:05:56;101139.84;;;11.64;82.69
32109;BME280;18624;50.042;8.436;2023-05-25T00:08:23;101131.00;;;11.53;83.61
32109;BME280;18624;50.042;8.436;2023-05-25T00:10:50;101143.88;;;11.56;83.72
32109;BME280;18624;50.042;8.436;2023-05-25T00:13:17;101151.19;;;11.66;83.68
32109;BME280;18624;50.042;8.436;2023-05-25T00:15:43;101139.13;;;11.60;83.83
32109;BME280;18624;50.042;8.436;2023-05-25T00:18:10;101139.00;;;11.68;84.34
32109;BME280;18624;50.042;8.436;2023-05-25T00:20:36;101134.16;;;11.52;85.39
32109;BME280;18624;50.042;8.436;2023-05-25T00:23:03;101136.81;;;11.59;85.12
32109;BME280;18624;50.042;8.436;2023-05-25T00:25:30;101104.09;;;11.45;85.38
32109;BME280;18624;50.042;8.436;2023-05-25T00:27:56;101130.47;;;11.62;85.14
32109;BME280;18624;50.042;8.436;2023-05-25T00:30:23;101118.00;;;11.57;85.47
32109;BME280;18624;50.042;8.436;2023-05-25T00:32:49;101137.38;;;11.70;85.83
32109;BME280;18624;50.042;8.436;2023-05-25T00:35:16;101124.56;;;11.63;85.55
32109;BME280;18624;50.042;8.436;2023-05-25T00:37:43;101124.84;;;11.69;86.30
32109;BME280;18624;50.042;8.436;2023-05-25T00:40:13;101121.53;;;11.58;87.11
32109;BME280;18624;50.042;8.436;2023-05-25T00:42:42;101038.84;;;11.05;87.62
32109;BME280;18624;50.042;8.436;2023-05-25T00:45:09;101118.78;;;11.58;88.03
32109;BME280;18624;50.042;8.436;2023-05-25T00:47:38;101119.34;;;11.46;89.16
32109;BME280;18624;50.042;8.436;2023-05-25T00:50:07;101107.84;;;11.31;90.20
32109;BME280;18624;50.042;8.436;2023-05-25T00:52:35;101121.84;;;11.36;91.21
32109;BME280;18624;50.042;8.436;2023-05-25T00:55:02;101127.81;;;11.31;91.91
32109;BME280;18624;50.042;8.436;2023-05-25T00:57:30;101127.28;;;11.40;91.89
32109;BME280;18624;50.042;8.436;2023-05-25T00:59:59;101119.88;;;11.37;92.08
32109;BME280;18624;50.042;8.436;2023-05-25T01:02:27;101077.72;;;11.00;92.99
32109;BME280;18624;50.042;8.436;2023-05-25T01:04:56;101041.63;;;10.75;93.79
32109;BME280;18624;50.042;8.436;2023-05-25T01:07:26;101116.88;;;11.28;94.17
32109;BME280;18624;50.042;8.436;2023-05-25T01:10:04;101129.00;;;11.30;94.11
32109;BME280;18624;50.042;8.436;2023-05-25T01:12:36;101045.06;;;10.82;94.18
32109;BME280;18624;50.042;8.436;2023-05-25T01:15:04;101122.97;;;11.39;93.96
32109;BME280;18624;50.042;8.436;2023-05-25T01:17:30;101117.66;;;11.28;94.75
32109;BME280;18624;50.042;8.436;2023-05-25T01:19:57;101054.78;;;10.87;94.39
32109;BME280;18624;50.042;8.436;2023-05-25T01:23:06;101129.47;;;11.25;95.47
32109;BME280;18624;50.042;8.436;2023-05-25T01:25:35;101137.28;;;11.27;95.97
32109;BME280;18624;50.042;8.436;2023-05-25T01:28:27;101136.09;;;11.28;96.20
32109;BME280;18624;50.042;8.436;2023-05-25T01:30:51;101146.03;;;11.18;96.86
32109;BME280;18624;50.042;8.436;2023-05-25T01:33:18;101036.97;;;10.45;97.77
32109;BME280;18624;50.042;8.436;2023-05-25T01:35:46;101141.03;;;11.13;98.20
32109;BME280;18624;50.042;8.436;2023-05-25T01:38:14;101055.19;;;10.58;97.65
32109;BME280;18624;50.042;8.436;2023-05-25T01:40:40;101139.34;;;11.19;98.17
32109;BME280;18624;50.042;8.436;2023-05-25T01:43:07;101145.28;;;11.18;98.07
32109;BME280;18624;50.042;8.436;2023-05-25T01:45:34;101136.19;;;11.21;97.59
32109;BME280;18624;50.042;8.436;2023-05-25T01:48:09;101025.00;;;10.31;97.78
32109;BME280;18624;50.042;8.436;2023-05-25T01:51:01;101123.91;;;11.02;98.39
32109;BME280;18624;50.042;8.436;2023-05-25T01:53:34;101134.84;;;11.05;98.83
32109;BME280;18624;50.042;8.436;2023-05-25T01:56:03;101128.72;;;10.94;99.13
32109;BME280;18624;50.042;8.436;2023-05-25T01:58:34;101147.03;;;11.04;99.27
32109;BME280;18624;50.042;8.436;2023-05-25T02:01:02;101157.16;;;11.07;99.58
32109;BME280;18624;50.042;8.436;2023-05-25T02:03:29;101146.91;;;11.11;99.40
32109;BME280;18624;50.042;8.436;2023-05-25T02:05:55;101143.16;;;10.98;99.84
32109;BME280;18624;50.042;8.436;2023-05-25T02:08:23;101152.03;;;11.09;99.67
32109;BME280;18624;50.042;8.436;2023-05-25T02:10:49;101153.31;;;11.01;100.00
32109;BME280;18624;50.042;8.436;2023-05-25T02:13:16;101149.53;;;10.92;100.00
32109;BME280;18624;50.042;8.436;2023-05-25T02:15:43;101144.13;;;10.84;100.00
32109;BME280;18624;50.042;8.436;2023-05-25T02:18:09;101141.72;;;10.90;100.00
32109;BME280;18624;50.042;8.436;2023-05-25T02:20:36;101148.03;;;10.87;100.00
32109;BME280;18624;50.042;8.436;2023-05-25T02:23:03;101134.31;;;10.87;100.00
32109;BME280;18624;50.042;8.436;2023-05-25T02:25:29;101059.00;;;10.34;100.00
32109;BME280;18624;50.042;8.436;2023-05-25T02:27:56;101150.22;;;10.99;100.00
32109;BME280;18624;50.042;8.436;2023-05-25T02:30:22;101132.25;;;10.95;100.00
32109;BME280;18624;50.042;8.436;2023-05-25T02:32:54;101128.72;;;10.94;100.00
32109;BME280;18624;50.042;8.436;2023-05-25T02:35:21;101133.81;;;10.96;100.00
32109;BME280;18624;50.042;8.436;2023-05-25T02:37:49;101133.03;;;10.95;100.00
32109;BME280;18624;50.042;8.436;2023-05-25T02:40:16;101133.78;;;10.99;100.00
32109;BME280;18624;50.042;8.436;2023-05-25T02:42:43;101129.06;;;11.00;100.00
32109;BME280;18624;50.042;8.436;2023-05-25T02:45:10;101127.84;;;11.01;100.00
32109;BME280;18624;50.042;8.436;2023-05-25T02:47:37;101125.06;;;11.04;100.00
32109;BME280;18624;50.042;8.436;2023-05-25T02:50:04;101126.63;;;11.05;100.00
32109;BME280;18624;50.042;8.436;2023-05-25T02:52:36;101131.03;;;10.99;100.00
32109;BME280;18624;50.042;8.436;2023-05-25T02:55:02;101127.09;;;11.00;100.00
32109;BME280;18624;50.042;8.436;2023-05-25T02:57:34;101120.88;;;10.96;100.00
32109;BME280;18624;50.042;8.436;2023-05-25T03:00:04;101059.59;;;10.49;100.00
32109;BME280;18624;50.042;8.436;2023-05-25T03:02:33;101085.97;;;10.70;100.00
32109;BME280;18624;50.042;8.436;2023-05-25T03:05:00;101134.59;;;10.96;100.00
32109;BME280;18624;50.042;8.436;2023-05-25T03:07:30;101081.41;;;10.59;100.00
32109;BME280;18624;50.042;8.436;2023-05-25T03:09:56;101141.25;;;10.95;100.00
32109;BME280;18624;50.042;8.436;2023-05-25T03:12:23;101074.03;;;10.53;100.00
32109;BME280;18624;50.042;8.436;2023-05-25T03:14:50;101131.25;;;10.81;100.00
32109;BME280;18624;50.042;8.436;2023-05-25T03:17:18;101139.75;;;10.90;100.00
32109;BME280;18624;50.042;8.436;2023-05-25T03:19:44;101143.22;;;10.95;100.00
32109;BME280;18624;50.042;8.436;2023-05-25T03:22:11;101149.13;;;10.93;100.00
32109;BME280;18624;50.042;8.436;2023-05-25T03:24:37;101152.63;;;10.94;100.00
32109;BME280;18624;50.042;8.436;2023-05-25T03:27:07;101151.81;;;10.97;100.00
32109;BME280;18624;50.042;8.436;2023-05-25T03:29:34;101150.66;;;10.94;100.00
32109;BME280;18624;50.042;8.436;2023-05-25T03:32:01;101157.00;;;10.91;100.00
32109;BME280;18624;50.042;8.436;2023-05-25T03:34:29;101152.28;;;10.92;100.00
32109;BME280;18624;50.042;8.436;2023-05-25T03:36:56;101140.94;;;10.89;100.00
32109;BME280;18624;50.042;8.436;2023-05-25T03:39:24;101082.25;;;10.53;100.00
32109;BME280;18624;50.042;8.436;2023-05-25T03:41:51;101148.66;;;10.98;100.00
32109;BME280;18624;50.042;8.436;2023-05-25T03:44:18;101146.75;;;10.95;100.00
32109;BME280;18624;50.042;8.436;2023-05-25T03:46:45;101153.00;;;10.96;100.00
32109;BME280;18624;50.042;8.436;2023-05-25T03:49:11;101152.59;;;10.97;99.99
32109;BME280;18624;50.042;8.436;2023-05-25T03:51:40;101159.63;;;10.98;99.63
32109;BME280;18624;50.042;8.436;2023-05-25T03:54:07;101146.47;;;10.86;99.19
32109;BME280;18624;50.042;8.436;2023-05-25T03:56:33;101163.56;;;10.97;99.25
32109;BME280;18624;50.042;8.436;2023-05-25T03:59:03;101163.97;;;10.96;98.75
32109;BME280;18624;50.042;8.436;2023-05-25T04:01:30;101161.63;;;10.94;98.42
32109;BME280;18624;50.042;8.436;2023-05-25T04:03:56;101155.94;;;10.81;98.53
32109;BME280;18624;50.042;8.436;2023-05-25T04:06:23;101170.31;;;10.89;98.88
32109;BME280;18624;50.042;8.436;2023-05-25T04:08:51;101172.25;;;10.92;98.97
32109;BME280;18624;50.042;8.436;2023-05-25T04:11:18;101160.97;;;10.86;99.08
32109;BME280;18624;50.042;8.436;2023-05-25T04:13:45;101176.91;;;10.95;98.94
32109;BME280;18624;50.042;8.436;2023-05-25T04:16:12;101170.66;;;10.95;99.15
32109;BME280;18624;50.042;8.436;2023-05-25T04:18:39;101150.84;;;10.80;98.85
32109;BME280;18624;50.042;8.436;2023-05-25T04:21:06;101179.97;;;11.01;99.12
32109;BME280;18624;50.042;8.436;2023-05-25T04:23:33;101101.19;;;10.40;99.15
32109;BME280;18624;50.042;8.436;2023-05-25T04:26:00;101185.50;;;10.97;98.99
32109;BME280;18624;50.042;8.436;2023-05-25T04:28:26;101187.91;;;10.95;99.45
32109;BME280;18624;50.042;8.436;2023-05-25T04:30:57;101186.63;;;11.03;99.57
32109;BME280;18624;50.042;8.436;2023-05-25T04:33:48;101197.16;;;11.05;99.15
32109;BME280;18624;50.042;8.436;2023-05-25T04:36:18;101204.63;;;11.04;99.30
32109;BME280;18624;50.042;8.436;2023-05-25T04:38:45;101197.59;;;11.03;99.31
32109;BME280;18624;50.042;8.436;2023-05-25T04:41:14;101204.63;;;11.04;99.91
32109;BME280;18624;50.042;8.436;2023-05-25T04:43:44;101163.88;;;10.72;99.53
32109;BME280;18624;50.042;8.436;2023-05-25T04:46:32;101219.69;;;10.89;100.00
32109;BME280;18624;50.042;8.436;2023-05-25T04:49:03;101174.34;;;10.47;100.00
32109;BME280;18624;50.042;8.436;2023-05-25T04:51:34;101222.22;;;10.76;100.00
32109;BME280;18624;50.042;8.436;2023-05-25T04:54:01;101220.97;;;10.81;100.00
32109;BME280;18624;50.042;8.436;2023-05-25T04:56:28;101221.66;;;10.88;100.00
32109;BME280;18624;50.042;8.436;2023-05-25T04:58:55;101222.44;;;10.89;100.00
32109;BME280;18624;50.042;8.436;2023-05-25T05:01:22;101221.16;;;10.97;100.00
32109;BME280;18624;50.042;8.436;2023-05-25T05:03:49;101212.94;;;10.97;100.00
32109;BME280;18624;50.042;8.436;2023-05-25T05:06:16;101221.09;;;11.04;100.00
32109;BME280;18624;50.042;8.436;2023-05-25T05:08:43;101230.81;;;11.09;100.00
32109;BME280;18624;50.042;8.436;2023-05-25T05:11:09;101230.81;;;11.09;100.00
32109;BME280;18624;50.042;8.436;2023-05-25T05:13:36;101158.03;;;10.70;100.00
32109;BME280;18624;50.042;8.436;2023-05-25T05:16:03;101238.06;;;11.26;100.00
32109;BME280;18624;50.042;8.436;2023-05-25T05:18:30;101248.53;;;11.35;100.00
32109;BME280;18624;50.042;8.436;2023-05-25T05:20:57;101239.06;;;11.39;100.00
32109;BME280;18624;50.042;8.436;2023-05-25T05:23:24;101253.19;;;11.38;99.53
32109;BME280;18624;50.042;8.436;2023-05-25T05:25:51;101254.72;;;11.39;99.74
32109;BME280;18624;50.042;8.436;2023-05-25T05:28:18;101247.34;;;11.36;98.47
32109;BME280;18624;50.042;8.436;2023-05-25T05:30:45;101251.94;;;11.43;98.64
32109;BME280;18624;50.042;8.436;2023-05-25T05:33:13;101235.97;;;11.34;98.97
32109;BME280;18624;50.042;8.436;2023-05-25T05:35:44;101257.34;;;11.50;98.52
32109;BME280;18624;50.042;8.436;2023-05-25T05:38:15;101256.44;;;11.56;98.33
32109;BME280;18624;50.042;8.436;2023-05-25T05:40:42;101253.25;;;11.61;97.42
32109;BME280;18624;50.042;8.436;2023-05-25T05:43:10;101177.94;;;11.08;97.82
32109;BME280;18624;50.042;8.436;2023-05-25T05:45:37;101258.22;;;11.70;95.28
32109;BME280;18624;50.042;8.436;2023-05-25T05:48:04;101258.94;;;11.74;96.12
32109;BME280;18624;50.042;8.436;2023-05-25T05:50:35;101269.06;;;11.81;94.77
32109;BME280;18624;50.042;8.436;2023-05-25T05:53:04;101266.31;;;11.84;94.06
32109;BME280;18624;50.042;8.436;2023-05-25T05:55:32;101268.16;;;11.91;92.90
32109;BME280;18624;50.042;8.436;2023-05-25T05:57:58;101270.13;;;11.90;91.43
32109;BME280;18624;50.042;8.436;2023-05-25T06:00:25;101276.09;;;11.85;92.37
32109;BME280;18624;50.042;8.436;2023-05-25T06:02:52;101248.72;;;11.75;90.57
32109;BME280;18624;50.042;8.436;2023-05-25T06:05:22;101268.50;;;11.93;91.77
32109;BME280;18624;50.042;8.436;2023-05-25T06:07:51;101269.19;;;12.01;90.01
32109;BME280;18624;50.042;8.436;2023-05-25T06:10:19;101270.19;;;12.10;90.09
32109;BME280;18624;50.042;8.436;2023-05-25T06:12:46;101272.59;;;12.08;88.77
32109;BME280;18624;50.042;8.436;2023-05-25T06:15:14;101276.78;;;12.16;87.62
32109;BME280;18624;50.042;8.436;2023-05-25T06:17:40;101284.06;;;12.27;87.14
32109;BME280;18624;50.042;8.436;2023-05-25T06:20:09;101280.41;;;12.33;86.32
32109;BME280;18624;50.042;8.436;2023-05-25T06:22:36;101286.72;;;12.34;85.45
32109;BME280;18624;50.042;8.436;2023-05-25T06:25:03;101290.59;;;12.36;86.49
32109;BME280;18624;50.042;8.436;2023-05-25T06:27:29;101288.22;;;12.38;87.08
32109;BME280;18624;50.042;8.436;2023-05-25T06:29:56;101290.75;;;12.49;87.02
32109;BME280;18624;50.042;8.436;2023-05-25T06:32:22;101288.34;;;12.51;86.67
32109;BME280;18624;50.042;8.436;2023-05-25T06:34:49;101291.78;;;12.59;86.58
32109;BME280;18624;50.042;8.436;2023-05-25T06:37:17;101193.38;;;12.03;84.40
32109;BME280;18624;50.042;8.436;2023-05-25T06:39:43;101285.66;;;12.71;83.94
32109;BME280;18624;50.042;8.436;2023-05-25T06:42:10;101287.81;;;12.83;83.32
32109;BME280;18624;50.042;8.436;2023-05-25T06:44:47;101285.13;;;13.00;81.64
32109;BME280;18624;50.042;8.436;2023-05-25T06:47:14;101297.47;;;13.11;81.52
32109;BME280;18624;50.042;8.436;2023-05-25T06:49:40;101282.72;;;13.22;78.63
32109;BME280;18624;50.042;8.436;2023-05-25T06:52:07;101292.97;;;13.41;78.14
32109;BME280;18624;50.042;8.436;2023-05-25T06:54:33;101291.78;;;13.42;77.83
32109;BME280;18624;50.042;8.436;2023-05-25T06:57:00;101295.69;;;13.61;75.96
32109;BME280;18624;50.042;8.436;2023-05-25T06:59:26;101291.28;;;13.63;75.37
32109;BME280;18624;50.042;8.436;2023-05-25T07:01:53;101293.84;;;13.74;75.29
32109;BME280;18624;50.042;8.436;2023-05-25T07:04:21;101292.38;;;13.86;73.12
32109;BME280;18624;50.042;8.436;2023-05-25T07:06:48;101293.59;;;14.01;73.52
32109;BME280;18624;50.042;8.436;2023-05-25T07:09:14;101295.31;;;14.11;72.56
32109;BME280;18624;50.042;8.436;2023-05-25T07:11:42;101300.16;;;14.24;71.77
32109;BME280;18624;50.042;8.436;2023-05-25T07:14:09;101294.38;;;14.34;71.32
32109;BME280;18624;50.042;8.436;2023-05-25T07:16:35;101292.38;;;14.35;71.22
32109;BME280;18624;50.042;8.436;2023-05-25T07:19:02;101295.94;;;14.52;71.75
32109;BME280;18624;50.042;8.436;2023-05-25T07:21:32;101289.34;;;14.62;71.22
32109;BME280;18624;50.042;8.436;2023-05-25T07:23:58;101308.81;;;14.71;70.12
32109;BME280;18624;50.042;8.436;2023-05-25T07:26:25;101288.13;;;14.79;70.69
32109;BME280;18624;50.042;8.436;2023-05-25T07:28:53;101119.38;;;13.77;69.73
32109;BME280;18624;50.042;8.436;2023-05-25T07:31:19;101281.25;;;15.00;69.81
32109;BME280;18624;50.042;8.436;2023-05-25T07:33:46;101170.19;;;14.38;67.44
32109;BME280;18624;50.042;8.436;2023-05-25T07:36:13;101288.75;;;15.12;65.08
32109;BME280;18624;50.042;8.436;2023-05-25T07:38:39;101282.91;;;15.10;65.55
32109;BME280;18624;50.042;8.436;2023-05-25T07:41:05;101288.34;;;15.14;64.55
32109;BME280;18624;50.042;8.436;2023-05-25T07:43:32;101203.28;;;14.67;65.01
32109;BME280;18624;50.042;8.436;2023-05-25T07:45:59;101281.97;;;15.30;65.09
32109;BME280;18624;50.042;8.436;2023-05-25T07:48:29;101284.66;;;15.46;65.23
32109;BME280;18624;50.042;8.436;2023-05-25T07:50:55;101289.41;;;15.45;63.75
32109;BME280;18624;50.042;8.436;2023-05-25T07:53:22;101231.34;;;15.07;63.48
32109;BME280;18624;50.042;8.436;2023-05-25T07:55:48;101288.97;;;15.47;63.01
32109;BME280;18624;50.042;8.436;2023-05-25T07:58:15;101279.44;;;15.48;63.10
32109;BME280;18624;50.042;8.436;2023-05-25T08:00:41;101270.50;;;15.57;62.94
32109;BME280;18624;50.042;8.436;2023-05-25T08:03:09;101277.84;;;15.76;63.63
32109;BME280;18624;50.042;8.436;2023-05-25T08:05:36;101273.53;;;15.88;58.54
32109;BME280;18624;50.042;8.436;2023-05-25T08:08:03;101273.63;;;15.97;57.31
32109;BME280;18624;50.042;8.436;2023-05-25T08:10:29;101268.53;;;16.08;58.79
32109;BME280;18624;50.042;8.436;2023-05-25T08:12:58;101266.19;;;16.07;57.28
32109;BME280;18624;50.042;8.436;2023-05-25T08:15:25;101269.63;;;16.11;56.34
32109;BME280;18624;50.042;8.436;2023-05-25T08:17:52;101275.34;;;16.16;56.29
32109;BME280;18624;50.042;8.436;2023-05-25T08:20:18;101273.47;;;16.26;56.37
32109;BME280;18624;50.042;8.436;2023-05-25T08:22:45;101282.75;;;16.32;55.90
32109;BME280;18624;50.042;8.436;2023-05-25T08:25:12;101276.69;;;16.25;55.50
32109;BME280;18624;50.042;8.436;2023-05-25T08:27:38;101275.47;;;16.26;54.62
32109;BME280;18624;50.042;8.436;2023-05-25T08:30:05;101263.41;;;16.19;54.32
32109;BME280;18624;50.042;8.436;2023-05-25T08:32:32;101274.75;;;16.34;56.62
32109;BME280;18624;50.042;8.436;2023-05-25T08:34:58;101273.53;;;16.48;55.61
32109;BME280;18624;50.042;8.436;2023-05-25T08:37:25;101277.09;;;16.36;52.38
32109;BME280;18624;50.042;8.436;2023-05-25T08:39:51;101275.00;;;16.40;52.85
32109;BME280;18624;50.042;8.436;2023-05-25T08:42:18;101242.81;;;16.20;53.59
32109;BME280;18624;50.042;8.436;2023-05-25T08:44:44;101282.38;;;16.43;50.95
32109;BME280;18624;50.042;8.436;2023-05-25T08:47:11;101278.16;;;16.51;50.20
32109;BME280;18624;50.042;8.436;2023-05-25T08:49:40;101274.38;;;16.58;50.30
32109;BME280;18624;50.042;8.436;2023-05-25T08:52:13;101280.16;;;16.85;52.31
32109;BME280;18624;50.042;8.436;2023-05-25T08:54:43;101281.06;;;17.04;50.91
32109;BME280;18624;50.042;8.436;2023-05-25T08:57:28;101290.34;;;17.10;52.79
32109;BME280;18624;50.042;8.436;2023-05-25T09:00:03;101279.91;;;17.14;49.90
32109;BME280;18624;50.042;8.436;2023-05-25T09:02:58;101278.06;;;17.11;50.29
32109;BME280;18624;50.042;8.436;2023-05-25T09:05:26;101260.22;;;16.90;49.83
32109;BME280;18624;50.042;8.436;2023-05-25T09:07:53;101286.31;;;17.02;48.46
32109;BME280;18624;50.042;8.436;2023-05-25T09:10:21;101292.16;;;17.04;50.32
32109;BME280;18624;50.042;8.436;2023-05-25T09:12:50;101275.53;;;17.04;50.87
32109;BME280;18624;50.042;8.436;2023-05-25T09:15:17;101282.53;;;17.18;52.11
32109;BME280;18624;50.042;8.436;2023-05-25T09:17:44;101215.66;;;16.76;51.83
32109;BME280;18624;50.042;8.436;2023-05-25T09:20:11;101230.16;;;16.80;52.13
32109;BME280;18624;50.042;8.436;2023-05-25T09:22:41;101278.47;;;17.10;51.03
32109;BME280;18624;50.042;8.436;2023-05-25T09:25:09;101286.53;;;17.17;50.66
32109;BME280;18624;50.042;8.436;2023-05-25T09:27:37;101282.03;;;17.10;49.73
32109;BME280;18624;50.042;8.436;2023-05-25T09:30:05;101291.75;;;17.15;50.37
32109;BME280;18624;50.042;8.436;2023-05-25T09:32:32;101282.84;;;17.20;49.45
32109;BME280;18624;50.042;8.436;2023-05-25T09:35:09;101298.31;;;17.30;48.71
32109;BME280;18624;50.042;8.436;2023-05-25T09:37:36;101259.91;;;17.19;49.59
32109;BME280;18624;50.042;8.436;2023-05-25T09:40:04;101274.41;;;17.55;49.36
32109;BME280;18624;50.042;8.436;2023-05-25T09:42:32;101295.81;;;17.76;48.08
32109;BME280;18624;50.042;8.436;2023-05-25T09:44:59;101245.25;;;17.41;48.89
32109;BME280;18624;50.042;8.436;2023-05-25T09:47:26;101304.19;;;17.63;50.09
32109;BME280;18624;50.042;8.436;2023-05-25T09:49:53;101296.50;;;17.67;51.65
32109;BME280;18624;50.042;8.436;2023-05-25T09:52:20;101274.19;;;17.71;50.85
32109;BME280;18624;50.042;8.436;2023-05-25T09:54:47;101297.38;;;17.86;49.58
32109;BME280;18624;50.042;8.436;2023-05-25T09:57:15;101292.44;;;17.81;50.21
32109;BME280;18624;50.042;8.436;2023-05-25T09:59:42;101304.75;;;17.80;48.47
32109;BME280;18624;50.042;8.436;2023-05-25T10:02:11;101296.94;;;17.88;49.55
32109;BME280;18624;50.042;8.436;2023-05-25T10:04:38;101306.16;;;17.85;50.52
32109;BME280;18624;50.042;8.436;2023-05-25T10:07:05;101306.16;;;17.85;51.88
32109;BME280;18624;50.042;8.436;2023-05-25T10:09:36;101300.28;;;17.83;51.52
32109;BME280;18624;50.042;8.436;2023-05-25T10:12:04;101301.16;;;17.70;51.02
32109;BME280;18624;50.042;8.436;2023-05-25T10:14:35;101298.75;;;17.82;52.64
32109;BME280;18624;50.042;8.436;2023-05-25T10:17:04;101295.88;;;17.94;52.29
32109;BME280;18624;50.042;8.436;2023-05-25T10:19:36;101286.75;;;17.85;52.55
32109;BME280;18624;50.042;8.436;2023-05-25T10:22:15;101291.09;;;17.95;52.47
32109;BME280;18624;50.042;8.436;2023-05-25T10:24:50;101296.06;;;18.09;51.93
32109;BME280;18624;50.042;8.436;2023-05-25T10:27:22;101285.16;;;18.15;52.66
32109;BME280;18624;50.042;8.436;2023-05-25T10:29:55;101289.91;;;18.23;51.85
32109;BME280;18624;50.042;8.436;2023-05-25T10:32:22;101289.78;;;18.27;50.95
32109;BME280;18624;50.042;8.436;2023-05-25T10:34:51;101297.66;;;18.29;51.17
32109;BME280;18624;50.042;8.436;2023-05-25T10:37:17;101297.97;;;18.31;50.56
32109;BME280;18624;50.042;8.436;2023-05-25T10:39:44;101205.16;;;17.64;50.54
32109;BME280;18624;50.042;8.436;2023-05-25T10:42:11;101255.97;;;18.01;50.87
32109;BME280;18624;50.042;8.436;2023-05-25T10:44:42;101291.78;;;18.27;51.66
32109;BME280;18624;50.042;8.436;2023-05-25T10:47:08;101282.22;;;18.28;50.96
32109;BME280;18624;50.042;8.436;2023-05-25T10:49:54;101280.84;;;18.32;51.16
32109;BME280;18624;50.042;8.436;2023-05-25T10:52:20;101278.69;;;18.27;51.18
32109;BME280;18624;50.042;8.436;2023-05-25T10:54:47;101277.78;;;18.30;51.41
32109;BME280;18624;50.042;8.436;2023-05-25T10:57:18;101276.69;;;18.37;51.93
32109;BME280;18624;50.042;8.436;2023-05-25T10:59:49;101281.16;;;18.34;50.34
32109;BME280;18624;50.042;8.436;2023-05-25T11:02:18;101272.34;;;18.17;50.18
32109;BME280;18624;50.042;8.436;2023-05-25T11:04:49;101264.63;;;18.12;50.78
32109;BME280;18624;50.042;8.436;2023-05-25T11:07:16;101267.72;;;18.14;50.81
32109;BME280;18624;50.042;8.436;2023-05-25T11:09:56;101254.31;;;18.22;51.16
32109;BME280;18624;50.042;8.436;2023-05-25T11:12:25;101265.28;;;18.35;49.90
32109;BME280;18624;50.042;8.436;2023-05-25T11:15:11;101265.28;;;18.44;48.47
32109;BME280;18624;50.042;8.436;2023-05-25T11:17:45;101239.69;;;18.21;48.58
32109;BME280;18624;50.042;8.436;2023-05-25T11:20:20;101260.50;;;18.26;48.61
32109;BME280;18624;50.042;8.436;2023-05-25T11:22:50;101265.28;;;18.26;49.84
32109;BME280;18624;50.042;8.436;2023-05-25T11:25:38;101256.94;;;18.26;48.21
32109;BME280;18624;50.042;8.436;2023-05-25T11:28:06;101261.28;;;18.36;48.71
32109;BME280;18624;50.042;8.436;2023-05-25T11:30:34;101252.78;;;18.39;49.04
32109;BME280;18624;50.042;8.436;2023-05-25T11:33:03;101202.22;;;18.26;49.10
32109;BME280;18624;50.042;8.436;2023-05-25T11:35:33;101166.00;;;18.02;49.47
32109;BME280;18624;50.042;8.436;2023-05-25T11:38:06;101243.72;;;18.57;50.03
32109;BME280;18624;50.042;8.436;2023-05-25T11:40:33;101237.84;;;18.64;50.56
32109;BME280;18624;50.042;8.436;2023-05-25T11:43:03;101174.31;;;18.30;50.05
32109;BME280;18624;50.042;8.436;2023-05-25T11:45:33;101232.47;;;18.79;50.58
32109;BME280;18624;50.042;8.436;2023-05-25T11:47:59;101232.59;;;18.85;49.34
32109;BME280;18624;50.042;8.436;2023-05-25T11:50:26;101212.53;;;18.90;49.20
32109;BME280;18624;50.042;8.436;2023-05-25T11:52:53;101228.13;;;18.96;49.91
32109;BME280;18624;50.042;8.436;2023-05-25T11:55:20;101230.72;;;19.00;48.59
32109;BME280;18624;50.042;8.436;2023-05-25T11:57:54;101231.03;;;19.02;48.19
32109;BME280;18624;50.042;8.436;2023-05-25T12:00:25;101238.44;;;19.05;48.21
32109;BME280;18624;50.042;8.436;2023-05-25T12:02:52;101191.41;;;18.83;47.38
32109;BME280;18624;50.042;8.436;2023-05-25T12:05:19;101217.78;;;18.97;46.95
32109;BME280;18624;50.042;8.436;2023-05-25T12:07:45;101222.53;;;19.06;46.44
32109;BME280;18624;50.042;8.436;2023-05-25T12:10:13;101219.44;;;19.04;46.90
32109;BME280;18624;50.042;8.436;2023-05-25T12:15:13;101226.66;;;19.19;46.21
32109;BME280;18624;50.042;8.436;2023-05-25T12:17:41;101214.91;;;19.25;45.90
32109;BME280;18624;50.042;8.436;2023-05-25T12:20:11;101215.81;;;19.31;46.46
32109;BME280;18624;50.042;8.436;2023-05-25T12:22:41;101218.31;;;19.29;46.22
32109;BME280;18624;50.042;8.436;2023-05-25T12:25:09;101210.63;;;19.14;46.68
32109;BME280;18624;50.042;8.436;2023-05-25T12:27:36;101212.28;;;19.21;47.30
32109;BME280;18624;50.042;8.436;2023-05-25T12:30:04;101155.91;;;18.87;48.59
32109;BME280;18624;50.042;8.436;2023-05-25T12:32:31;101203.19;;;19.20;46.35
32109;BME280;18624;50.042;8.436;2023-05-25T12:35:02;101203.97;;;19.21;46.87
32109;BME280;18624;50.042;8.436;2023-05-25T12:37:28;101205.97;;;19.20;46.85
32109;BME280;18624;50.042;8.436;2023-05-25T12:39:55;101208.44;;;19.28;48.41
32109;BME280;18624;50.042;8.436;2023-05-25T12:42:25;101121.81;;;18.78;47.43
32109;BME280;18624;50.042;8.436;2023-05-25T12:44:55;101198.69;;;19.32;46.92
32109;BME280;18624;50.042;8.436;2023-05-25T12:47:27;101190.19;;;19.27;47.82
32109;BME280;18624;50.042;8.436;2023-05-25T12:50:12;101191.56;;;19.31;48.14
32109;BME280;18624;50.042;8.436;2023-05-25T12:52:43;101190.75;;;19.40;48.07
32109;BME280;18624;50.042;8.436;2023-05-25T12:55:42;101189.34;;;19.44;48.29
32109;BME280;18624;50.042;8.436;2023-05-25T12:58:25;101167.63;;;19.34;46.66